Time;durP1;ratioP1;P1;durP2;ratioP2;P2;SDS_P1;SDS_P2;PMS_P1;PMS_P2;Temp;Humidity;BMP_temperature;BMP_pressure;BME280_temperature;BME280_humidity;BME280_pressure;Samples;Min_cycle;Max_cycle;Signal;HPM_P1;HPM_P2
2021/12/07 00:02:39;;;;;;;76.57;30.33;;;;;;;6.46;100.00;100152.53;5055783;28;20115;-70
2021/12/07 00:05:25;;;;;;;73.85;31.73;;;;;;;6.84;100.00;100157.31;5041544;28;20025;-70
2021/12/07 00:08:10;;;;;;;90.03;34.10;;;;;;;7.13;100.00;100168.25;5054883;28;20082;-70
2021/12/07 00:10:57;;;;;;;98.35;36.97;;;;;;;7.09;100.00;100146.59;5054515;28;20405;-70
2021/12/07 00:13:43;;;;;;;76.28;32.58;;;;;;;7.10;100.00;100155.25;5055749;28;20025;-70
2021/12/07 00:16:29;;;;;;;81.30;32.75;;;;;;;6.87;100.00;100159.91;5055347;28;20021;-70
2021/12/07 00:19:14;;;;;;;88.78;34.45;;;;;;;6.60;100.00;100145.44;5055010;28;20021;-70
2021/12/07 00:22:03;;;;;;;88.10;34.35;;;;;;;6.86;100.00;100148.63;5054446;28;20087;-70
2021/12/07 00:24:49;;;;;;;75.80;31.67;;;;;;;6.47;100.00;100135.19;5055988;28;20036;-71
2021/12/07 00:27:35;;;;;;;83.60;32.58;;;;;;;6.86;100.00;100132.13;5039686;28;20060;-70
2021/12/07 00:30:27;;;;;;;67.13;29.90;;;;;;;6.33;100.00;100142.25;5055533;28;20040;-70
2021/12/07 00:36:07;;;;;;;62.47;27.90;;;;;;;6.79;100.00;100138.31;5054982;28;20033;-71
2021/12/07 00:38:53;;;;;;;71.57;28.05;;;;;;;6.82;100.00;100139.13;5053357;28;20029;-70
2021/12/07 00:41:39;;;;;;;59.35;26.65;;;;;;;7.00;100.00;100151.06;5054091;28;20068;-71
2021/12/07 00:44:26;;;;;;;61.95;28.63;;;;;;;6.91;100.00;100133.78;5054238;28;20029;-71
2021/12/07 00:47:12;;;;;;;85.72;31.80;;;;;;;7.20;100.00;100126.47;5055168;28;20075;-71
2021/12/07 00:49:58;;;;;;;74.57;30.63;;;;;;;6.99;100.00;100103.31;5054656;28;20056;-70
2021/12/07 00:52:44;;;;;;;78.97;31.63;;;;;;;6.63;100.00;100106.34;5053662;28;20025;-70
2021/12/07 00:55:33;;;;;;;65.40;29.08;;;;;;;7.11;100.00;100100.53;5054069;28;20043;-70
2021/12/07 00:58:23;;;;;;;71.88;30.52;;;;;;;6.82;100.00;100112.22;5055623;28;20494;-70
2021/12/07 01:01:12;;;;;;;71.38;31.80;;;;;;;6.61;100.00;100118.53;5055241;28;20106;-70
2021/12/07 01:03:58;;;;;;;72.43;30.40;;;;;;;7.02;100.00;100110.22;5053681;28;20029;-70
2021/12/07 01:06:48;;;;;;;75.72;31.88;;;;;;;7.03;100.00;100104.16;5038837;28;20033;-70
2021/12/07 01:24:43;;;;;;;83.72;33.42;;;;;;;7.11;100.00;100097.09;5058732;28;20025;-70
2021/12/07 01:27:29;;;;;;;101.60;36.50;;;;;;;7.30;100.00;100101.16;5057248;28;20056;-71
2021/12/07 01:30:22;;;;;;;110.20;38.70;;;;;;;6.91;100.00;100106.91;5057973;28;20118;-71
2021/12/07 01:39:48;;;;;;;79.55;32.67;;;;;;;7.09;100.00;100081.50;5058080;28;20025;-70
2021/12/07 01:52:03;;;;;;;100.82;36.50;;;;;;;7.03;100.00;100078.09;5057801;28;20357;-70
2021/12/07 04:47:17;;;;;;;42.28;21.67;;;;;;;6.34;100.00;100008.72;5087547;23;20493;-70
2021/12/07 04:59:13;;;;;;;40.65;19.95;;;;;;;6.00;100.00;100010.84;4915510;29;20040;-71
2021/12/07 05:01:59;;;;;;;35.53;19.42;;;;;;;5.97;100.00;100013.47;4923098;29;20032;-70
2021/12/07 05:04:45;;;;;;;39.80;20.00;;;;;;;6.34;100.00;100021.72;4924341;29;20032;-71
2021/12/07 05:07:36;;;;;;;39.40;19.33;;;;;;;5.98;100.00;100024.72;4936983;29;20456;-71
2021/12/07 05:10:30;;;;;;;34.03;17.98;;;;;;;6.26;100.00;100019.19;4936629;29;20065;-71
2021/12/07 05:34:37;;;;;;;32.17;16.73;;;;;;;6.11;100.00;100002.91;4937338;29;20091;-70
2021/12/07 05:40:30;;;;;;;36.25;20.00;;;;;;;6.08;100.00;100001.22;4937509;29;20079;-71
2021/12/07 05:43:16;;;;;;;38.15;19.13;;;;;;;6.05;100.00;99988.25;4936693;29;20028;-71
2021/12/07 05:46:05;;;;;;;38.85;18.67;;;;;;;6.08;100.00;99983.00;4936533;29;20060;-70
2021/12/07 05:48:51;;;;;;;41.05;21.33;;;;;;;6.10;100.00;100003.81;4937653;29;20032;-70
2021/12/07 05:51:37;;;;;;;36.35;20.90;;;;;;;5.96;100.00;100003.06;4937134;29;20024;-70
2021/12/07 05:54:23;;;;;;;38.30;21.15;;;;;;;5.94;100.00;99997.88;4936608;29;20027;-70
2021/12/07 05:57:09;;;;;;;35.13;20.80;;;;;;;5.84;100.00;99978.06;4936506;29;20032;-71
2021/12/07 05:59:55;;;;;;;39.03;21.92;;;;;;;5.91;100.00;99989.28;4937080;29;20035;-70
2021/12/07 06:02:41;;;;;;;42.95;21.55;;;;;;;6.27;100.00;99989.72;4935937;29;20103;-71
2021/12/07 06:05:28;;;;;;;39.88;23.65;;;;;;;6.46;100.00;99999.03;4936358;29;20050;-71
2021/12/07 06:08:14;;;;;;;43.45;23.30;;;;;;;6.38;100.00;99989.59;4938464;29;20410;-70
2021/12/07 06:11:00;;;;;;;43.85;24.05;;;;;;;6.51;100.00;99980.75;4939692;29;20024;-71
2021/12/07 06:13:46;;;;;;;44.97;23.67;;;;;;;6.28;100.00;99983.66;4939419;29;20310;-71
2021/12/07 06:16:32;;;;;;;43.80;24.15;;;;;;;6.18;100.00;99995.03;4939991;29;20036;-71
2021/12/07 06:19:17;;;;;;;40.50;22.63;;;;;;;6.71;100.00;99990.00;4940185;29;20032;-70
2021/12/07 06:22:05;;;;;;;41.25;22.15;;;;;;;6.46;100.00;99988.59;4939267;29;20024;-71
2021/12/07 06:24:51;;;;;;;41.67;21.30;;;;;;;6.48;100.00;99986.00;4939798;29;20364;-70
2021/12/07 06:27:38;;;;;;;36.38;20.13;;;;;;;6.42;100.00;99999.06;4939158;29;20369;-71
2021/12/07 06:30:24;;;;;;;44.25;21.23;;;;;;;6.48;100.00;99991.19;4940887;29;20148;-71
2021/12/07 06:33:11;;;;;;;43.33;20.80;;;;;;;6.34;100.00;99987.91;4939168;29;20023;-70
2021/12/07 06:36:01;;;;;;;36.40;19.17;;;;;;;6.33;100.00;99991.38;4939730;29;20067;-70
2021/12/07 06:38:47;;;;;;;37.75;19.50;;;;;;;6.58;100.00;99993.66;4940424;29;20035;-70
2021/12/07 06:41:34;;;;;;;35.75;20.05;;;;;;;6.18;100.00;99986.38;4939727;29;20484;-70
2021/12/07 06:44:20;;;;;;;39.92;21.23;;;;;;;6.33;100.00;99997.44;4939122;29;20028;-70
2021/12/07 06:47:06;;;;;;;37.63;19.70;;;;;;;6.67;100.00;100003.94;4938496;29;20066;-71
2021/12/07 06:49:51;;;;;;;33.08;19.02;;;;;;;6.41;100.00;99999.94;4940818;28;20112;-71
2021/12/07 06:52:38;;;;;;;37.97;20.15;;;;;;;6.54;100.00;99991.09;4939772;29;20024;-71
2021/12/07 06:55:24;;;;;;;36.17;20.25;;;;;;;6.54;100.00;99968.56;4939731;29;20071;-71
2021/12/07 06:58:10;;;;;;;42.17;22.55;;;;;;;6.99;100.00;99977.47;4925426;29;20091;-70
2021/12/07 07:00:56;;;;;;;44.08;23.45;;;;;;;6.66;100.00;99989.22;4939446;29;20035;-70
2021/12/07 07:03:42;;;;;;;44.38;23.40;;;;;;;7.40;100.00;99999.38;4938304;29;20028;-69
2021/12/07 07:06:28;;;;;;;35.03;19.73;;;;;;;7.14;100.00;99978.09;4938655;29;20027;-70
2021/12/07 07:09:14;;;;;;;39.97;22.02;;;;;;;7.68;100.00;99969.34;4938344;29;20042;-71
2021/12/07 07:12:00;;;;;;;45.13;24.25;;;;;;;7.66;100.00;99973.75;4925951;29;20326;-71
2021/12/07 07:14:46;;;;;;;38.55;22.23;;;;;;;7.65;100.00;99969.44;4939116;29;20515;-71
2021/12/07 07:17:32;;;;;;;35.17;20.00;;;;;;;7.73;100.00;99967.53;4925041;29;20042;-71
2021/12/07 07:20:18;;;;;;;43.78;22.13;;;;;;;7.66;100.00;99970.25;4937642;29;20341;-71
2021/12/07 07:23:05;;;;;;;36.83;20.83;;;;;;;7.73;100.00;99961.47;4938476;29;20449;-71
2021/12/07 07:25:51;;;;;;;36.90;20.58;;;;;;;7.93;100.00;99968.03;4924912;29;20141;-70
2021/12/07 07:28:39;;;;;;;36.78;22.15;;;;;;;8.19;100.00;99970.13;4938836;29;20032;-71
2021/12/07 07:31:26;;;;;;;49.10;24.75;;;;;;;8.10;100.00;99975.53;4924910;29;20028;-72
2021/12/07 07:34:11;;;;;;;41.50;22.98;;;;;;;8.12;100.00;99968.53;4938658;29;20083;-69
2021/12/07 07:36:57;;;;;;;33.63;20.13;;;;;;;8.17;100.00;99964.09;4938115;29;20042;-70
2021/12/07 07:39:43;;;;;;;33.40;17.50;;;;;;;8.27;100.00;99957.81;4938684;29;20495;-71
2021/12/07 07:42:29;;;;;;;33.90;19.65;;;;;;;8.22;100.00;99977.94;4938071;29;20465;-70
2021/12/07 07:45:16;;;;;;;33.97;19.35;;;;;;;8.15;100.00;99971.06;4937509;29;20035;-70
2021/12/07 09:01:57;;;;;;;27.90;14.80;;;;;;;6.96;100.00;99964.50;4937191;29;20054;-71
2021/12/07 09:04:45;;;;;;;26.58;13.65;;;;;;;6.79;100.00;99948.28;4936554;29;20031;-71
2021/12/07 09:07:30;;;;;;;26.38;13.02;;;;;;;6.76;100.00;99930.09;4918110;29;20039;-70
2021/12/07 09:10:17;;;;;;;24.90;14.43;;;;;;;6.81;100.00;99926.53;4917438;29;20031;-69
2021/12/07 09:13:03;;;;;;;32.92;17.92;;;;;;;7.07;100.00;99945.22;4918903;29;20439;-71
2021/12/07 09:15:48;;;;;;;38.92;20.15;;;;;;;7.02;100.00;99904.50;4903430;29;20024;-72
2021/12/07 09:18:34;;;;;;;27.80;16.10;;;;;;;6.90;100.00;99902.09;4918856;29;20020;-70
2021/12/07 09:21:21;;;;;;;26.45;13.07;;;;;;;7.10;100.00;99907.84;4918040;29;20059;-71
2021/12/07 09:24:07;;;;;;;35.67;18.05;;;;;;;7.17;100.00;99888.63;4904678;29;20051;-71
2021/12/07 09:26:53;;;;;;;29.30;16.05;;;;;;;6.78;100.00;99897.94;4917451;29;20036;-70
2021/12/07 09:29:39;;;;;;;31.65;17.25;;;;;;;6.80;100.00;99879.69;4918444;29;20039;-71
2021/12/07 09:32:25;;;;;;;30.95;16.02;;;;;;;7.10;100.00;99890.47;4916687;29;20024;-70
2021/12/07 09:35:13;;;;;;;29.88;16.25;;;;;;;7.07;100.00;99885.31;4916638;29;20115;-70
2021/12/07 09:37:59;;;;;;;26.08;13.82;;;;;;;7.15;100.00;99886.03;4917403;29;20032;-71
2021/12/07 09:40:47;;;;;;;25.17;13.38;;;;;;;6.97;100.00;99898.50;4917884;29;20058;-70
2021/12/07 09:43:33;;;;;;;23.58;14.27;;;;;;;6.96;100.00;99895.06;4920139;29;20035;-70
2021/12/07 09:46:19;;;;;;;23.92;13.82;;;;;;;6.91;100.00;99890.81;4920905;29;20039;-70
2021/12/07 09:49:06;;;;;;;47.97;26.60;;;;;;;6.90;100.00;99904.69;4921915;29;20468;-72
2021/12/07 09:51:52;;;;;;;39.58;20.88;;;;;;;7.26;100.00;99909.28;4920846;29;20043;-70
2021/12/07 09:54:38;;;;;;;32.97;17.48;;;;;;;7.39;100.00;99914.28;4906711;29;20075;-70
2021/12/07 09:57:24;;;;;;;25.60;15.45;;;;;;;7.28;100.00;99916.19;4920460;29;20098;-71
2021/12/07 10:00:14;;;;;;;28.73;15.90;;;;;;;7.86;100.00;99911.66;4907105;29;20161;-71
2021/12/07 10:03:00;;;;;;;29.85;16.73;;;;;;;8.16;100.00;99899.75;4921048;29;20262;-71
2021/12/07 10:05:46;;;;;;;31.42;18.45;;;;;;;8.09;100.00;99898.16;4920885;29;20028;-70
2021/12/07 10:08:32;;;;;;;38.92;17.88;;;;;;;8.35;100.00;99895.88;4907703;29;20055;-70
2021/12/07 10:11:18;;;;;;;32.00;18.15;;;;;;;8.23;100.00;99885.72;4921496;29;20170;-69
2021/12/07 10:14:04;;;;;;;30.80;17.65;;;;;;;8.29;100.00;99880.38;4921185;29;20024;-70
2021/12/07 10:16:51;;;;;;;27.40;17.02;;;;;;;8.11;100.00;99885.94;4908077;29;20413;-70
2021/12/07 10:19:43;;;;;;;37.13;19.70;;;;;;;8.10;100.00;99877.28;4920655;29;20035;-70
2021/12/07 10:22:35;;;;;;;32.45;19.13;;;;;;;7.65;100.00;99877.31;4920371;29;20036;-70
2021/12/07 10:25:25;;;;;;;32.03;17.88;;;;;;;8.53;100.00;99877.22;4920556;29;20028;-70
2021/12/07 10:28:53;;;;;;;31.70;18.52;;;;;;;8.61;100.00;99868.31;4920277;29;20107;-70
2021/12/07 10:31:40;;;;;;;32.92;19.45;;;;;;;8.37;100.00;99854.97;4918920;29;20031;-72
2021/12/07 10:34:35;;;;;;;34.03;19.35;;;;;;;8.70;100.00;99856.81;4920129;29;20028;-70
2021/12/07 10:37:20;;;;;;;41.00;23.63;;;;;;;8.33;100.00;99855.94;4920807;29;20028;-71
2021/12/07 10:40:12;;;;;;;41.13;20.48;;;;;;;8.36;100.00;99845.44;4920203;29;20364;-70
2021/12/07 10:42:58;;;;;;;36.83;21.48;;;;;;;8.69;100.00;99840.25;4921138;29;20108;-70
2021/12/07 10:45:43;;;;;;;39.00;21.65;;;;;;;8.43;100.00;99845.25;4920422;29;20023;-70
2021/12/07 10:55:12;;;;;;;35.90;20.40;;;;;;;8.30;100.00;99858.59;5909771;23;21122;-70
2021/12/07 10:58:01;;;;;;;37.38;19.25;;;;;;;8.08;100.00;99854.72;4919258;29;20118;-71
2021/12/07 11:00:51;;;;;;;35.83;19.90;;;;;;;7.69;100.00;99855.53;4920038;29;20054;-71
2021/12/07 11:03:36;;;;;;;42.55;21.15;;;;;;;8.00;100.00;99843.59;4919016;29;20122;-70
2021/12/07 11:06:22;;;;;;;39.58;20.90;;;;;;;8.52;100.00;99852.03;4921400;29;20524;-70
2021/12/07 11:09:08;;;;;;;38.17;20.50;;;;;;;8.63;100.00;99853.47;4920041;29;20042;-70
2021/12/07 11:12:15;;;;;;;31.33;19.17;;;;;;;7.94;100.00;99851.53;4920618;29;20107;-70
2021/12/07 11:15:11;;;;;;;32.28;19.77;;;;;;;8.24;100.00;99850.94;4906739;29;20032;-70
2021/12/07 11:18:01;;;;;;;34.30;20.98;;;;;;;8.38;100.00;99833.19;4905326;29;20457;-71
2021/12/07 11:20:47;;;;;;;31.27;18.27;;;;;;;8.21;100.00;99823.16;4919413;29;20491;-71
2021/12/07 11:23:49;;;;;;;34.05;19.02;;;;;;;8.27;100.00;99825.59;4919477;29;20035;-71
2021/12/07 11:29:42;;;;;;;29.77;18.02;;;;;;;8.49;100.00;99823.38;4920329;29;20064;-70
2021/12/07 11:32:29;;;;;;;34.35;19.25;;;;;;;8.40;100.00;99803.56;4919377;29;20373;-71
2021/12/07 11:35:27;;;;;;;33.15;19.13;;;;;;;8.64;100.00;99809.97;4919855;29;20131;-71
2021/12/07 11:38:12;;;;;;;36.47;20.25;;;;;;;8.60;100.00;99811.78;4920175;29;20024;-71
2021/12/07 11:41:15;;;;;;;31.67;18.80;;;;;;;8.37;100.00;99795.78;4920842;29;20043;-70
2021/12/07 11:44:08;;;;;;;37.15;21.02;;;;;;;8.76;100.00;99801.84;4918736;29;20475;-70
2021/12/07 11:46:56;;;;;;;39.08;23.35;;;;;;;8.80;100.00;99795.66;4919480;29;20453;-70
2021/12/07 11:49:42;;;;;;;41.38;23.73;;;;;;;8.53;100.00;99801.53;4919095;29;20032;-70
2021/12/07 11:52:28;;;;;;;36.15;21.15;;;;;;;8.41;100.00;99805.25;4919922;29;20032;-70
2021/12/07 11:55:15;;;;;;;35.50;19.88;;;;;;;8.56;100.00;99806.69;4918815;29;20051;-70
2021/12/07 11:58:03;;;;;;;34.15;19.40;;;;;;;8.67;100.00;99817.69;4919181;29;20091;-70
2021/12/07 12:00:52;;;;;;;33.58;20.08;;;;;;;8.75;100.00;99815.75;4918886;29;20103;-71
2021/12/07 12:03:38;;;;;;;36.00;20.38;;;;;;;9.08;100.00;99800.09;4918481;29;20518;-70
2021/12/07 12:06:24;;;;;;;32.63;20.27;;;;;;;9.02;100.00;99796.81;4919247;29;20032;-70
2021/12/07 12:09:11;;;;;;;32.75;19.55;;;;;;;8.48;100.00;99799.00;4919032;29;20369;-71
2021/12/07 12:12:39;;;;;;;34.28;20.23;;;;;;;8.84;100.00;99807.72;4906138;29;20179;-71
2021/12/07 12:15:46;;;;;;;41.00;22.90;;;;;;;8.53;100.00;99804.97;4887583;29;20453;-69
2021/12/07 12:18:48;;;;;;;38.30;20.58;;;;;;;8.24;100.00;99804.78;4918513;29;20130;-70
2021/12/07 12:21:43;;;;;;;37.15;21.15;;;;;;;8.62;100.00;99809.13;4918237;29;20035;-71
2021/12/07 12:24:51;;;;;;;43.47;22.02;;;;;;;8.66;100.00;99803.81;4918955;29;20028;-70
2021/12/07 12:27:37;;;;;;;36.00;20.33;;;;;;;8.91;100.00;99810.13;4918714;29;20031;-70
2021/12/07 12:30:23;;;;;;;40.25;21.90;;;;;;;8.52;100.00;99812.88;4918550;29;20100;-71
2021/12/07 12:33:12;;;;;;;42.65;25.30;;;;;;;8.46;100.00;99811.25;4917969;29;20068;-70
2021/12/07 12:35:59;;;;;;;43.25;24.85;;;;;;;8.16;100.00;99811.06;4918725;29;20031;-70
2021/12/07 12:39:00;;;;;;;46.05;25.60;;;;;;;8.49;100.00;99816.38;4919775;29;20046;-69
2021/12/07 12:41:59;;;;;;;42.17;23.40;;;;;;;8.32;100.00;99808.09;4918521;29;20349;-72
2021/12/07 12:44:45;;;;;;;42.50;24.55;;;;;;;8.33;100.00;99808.97;4918378;29;20036;-69
2021/12/07 12:47:32;;;;;;;40.70;23.35;;;;;;;8.55;100.00;99811.03;4918658;29;20052;-70
2021/12/07 12:59:38;;;;;;;44.17;25.92;;;;;;;8.42;100.00;99819.19;5820459;23;21606;-69
2021/12/07 13:02:28;;;;;;;46.28;27.55;;;;;;;8.47;100.00;99819.94;4936648;29;20377;-71
2021/12/07 13:05:16;;;;;;;43.47;24.23;;;;;;;8.75;100.00;99834.91;4937327;29;20040;-71
2021/12/07 13:08:16;;;;;;;40.97;25.00;;;;;;;8.59;100.00;99833.56;4936861;29;20035;-71
2021/12/07 13:11:04;;;;;;;32.00;20.42;;;;;;;8.27;100.00;99836.03;4938674;29;20031;-69
2021/12/07 13:13:50;;;;;;;34.63;20.33;;;;;;;8.41;100.00;99833.13;4936685;29;20024;-71
2021/12/07 13:16:38;;;;;;;39.03;23.15;;;;;;;8.76;100.00;99833.16;4937180;29;20023;-70
2021/12/07 13:19:24;;;;;;;40.70;24.75;;;;;;;8.89;100.00;99835.41;4936528;29;20037;-71
2021/12/07 13:22:17;;;;;;;35.47;20.88;;;;;;;9.23;100.00;99838.91;4935167;29;20039;-71
2021/12/07 13:25:18;;;;;;;39.45;22.98;;;;;;;8.77;100.00;99845.31;4936894;29;20058;-70
2021/12/07 13:28:33;;;;;;;52.97;29.48;;;;;;;8.71;100.00;99843.72;4936352;29;20042;-71
2021/12/07 13:31:20;;;;;;;53.92;31.10;;;;;;;8.44;100.00;99844.34;4930481;29;20480;-70
2021/12/07 13:34:07;;;;;;;56.50;30.42;;;;;;;8.63;100.00;99842.16;4936659;29;20028;-70
2021/12/07 13:36:58;;;;;;;53.17;30.55;;;;;;;8.75;100.00;99847.09;4936260;29;20031;-70
2021/12/07 13:39:50;;;;;;;69.25;35.85;;;;;;;8.73;100.00;99847.13;4936771;29;20134;-70
2021/12/07 13:42:47;;;;;;;62.03;32.47;;;;;;;8.50;100.00;99843.34;4911976;29;20475;-70
2021/12/07 13:45:32;;;;;;;58.60;30.60;;;;;;;8.26;100.00;99850.00;4936153;29;20528;-70
2021/12/07 13:48:18;;;;;;;60.78;30.42;;;;;;;8.13;100.00;99860.69;4936962;29;20055;-72
2021/12/07 13:51:05;;;;;;;63.85;30.90;;;;;;;8.00;100.00;99859.25;4937214;29;20050;-71
2021/12/07 13:53:51;;;;;;;66.43;31.88;;;;;;;8.27;100.00;99856.06;4936715;29;20368;-72
2021/12/07 13:56:38;;;;;;;60.65;30.58;;;;;;;8.18;100.00;99871.88;4936611;29;20027;-71
2021/12/07 13:59:26;;;;;;;56.42;30.48;;;;;;;8.24;100.00;99863.97;4923052;29;20127;-73
2021/12/07 14:02:12;;;;;;;56.25;29.88;;;;;;;8.31;100.00;99869.00;4935976;29;20110;-72
2021/12/07 14:05:04;;;;;;;56.53;29.25;;;;;;;8.59;100.00;99870.13;4937497;29;20039;-72
2021/12/07 14:07:51;;;;;;;55.50;29.17;;;;;;;8.20;100.00;99870.13;4936501;29;20039;-73
2021/12/07 14:10:44;;;;;;;57.70;29.33;;;;;;;8.13;100.00;99869.38;4922916;29;20028;-72
2021/12/07 14:13:30;;;;;;;58.60;28.58;;;;;;;8.34;100.00;99863.72;4936839;29;20102;-74
2021/12/07 14:16:21;;;;;;;55.88;29.25;;;;;;;8.26;100.00;99862.16;4938562;29;20047;-72
2021/12/07 14:19:07;;;;;;;59.30;29.45;;;;;;;8.60;100.00;99866.59;4936422;29;20421;-74
2021/12/07 14:21:53;;;;;;;64.53;36.08;;;;;;;8.50;100.00;99859.03;4935998;29;20098;-73
2021/12/07 14:24:39;;;;;;;64.47;32.47;;;;;;;8.49;100.00;99862.53;4936759;29;20035;-73
2021/12/07 14:27:26;;;;;;;60.53;30.75;;;;;;;8.44;100.00;99862.63;4935704;29;20474;-72
2021/12/07 14:30:14;;;;;;;60.35;30.15;;;;;;;8.40;100.00;99865.34;4939644;29;20135;-72
2021/12/07 14:33:00;;;;;;;61.42;31.83;;;;;;;8.36;100.00;99861.09;4939272;29;20019;-73
2021/12/07 14:35:46;;;;;;;78.13;37.63;;;;;;;8.40;100.00;99865.34;4939376;29;20451;-71
2021/12/07 14:38:34;;;;;;;65.53;32.78;;;;;;;8.41;100.00;99865.28;4939691;29;20046;-73
2021/12/07 14:41:22;;;;;;;55.50;30.25;;;;;;;8.51;100.00;99856.38;4939149;29;20476;-72
2021/12/07 14:44:10;;;;;;;57.58;29.60;;;;;;;8.56;100.00;99862.34;4939193;29;20028;-72
2021/12/07 14:47:00;;;;;;;61.25;30.63;;;;;;;8.77;100.00;99861.00;4925497;29;20487;-72
2021/12/07 14:49:49;;;;;;;56.35;29.35;;;;;;;8.57;100.00;99871.88;4939263;29;20040;-73
2021/12/07 14:52:36;;;;;;;61.03;29.30;;;;;;;8.38;100.00;99874.94;4925012;29;20532;-72
2021/12/07 14:55:21;;;;;;;48.63;25.58;;;;;;;8.58;100.00;99870.13;4938884;29;20028;-72
2021/12/07 14:58:07;;;;;;;42.60;22.17;;;;;;;8.67;100.00;99868.19;4938759;29;20106;-72
2021/12/07 15:00:53;;;;;;;40.63;23.02;;;;;;;8.24;100.00;99877.00;4938853;29;20056;-72
2021/12/07 15:03:44;;;;;;;44.15;24.13;;;;;;;8.32;100.00;99868.09;4925153;29;20031;-73
2021/12/07 15:06:33;;;;;;;52.28;26.30;;;;;;;8.59;100.00;99867.50;4940541;28;20054;-72
2021/12/07 15:09:19;;;;;;;37.00;20.05;;;;;;;8.54;100.00;99869.38;4925053;29;20255;-73
2021/12/07 15:12:08;;;;;;;34.42;19.00;;;;;;;8.49;100.00;99873.81;4939167;29;20358;-73
2021/12/07 15:15:00;;;;;;;34.33;19.98;;;;;;;8.59;100.00;99875.34;4938473;29;20043;-71
2021/12/07 15:17:45;;;;;;;39.40;20.90;;;;;;;8.43;100.00;99870.47;4925377;29;20027;-72
2021/12/07 15:20:31;;;;;;;36.92;21.25;;;;;;;8.61;100.00;99865.69;4938351;29;20020;-72
2021/12/07 15:23:18;;;;;;;37.50;21.85;;;;;;;8.38;100.00;99864.50;4939307;29;20464;-73
2021/12/07 15:26:06;;;;;;;40.13;22.08;;;;;;;8.28;100.00;99874.28;4925205;29;20067;-73
2021/12/07 15:29:04;;;;;;;43.55;22.40;;;;;;;8.62;100.00;99869.19;4939882;29;20042;-73
2021/12/07 15:31:55;;;;;;;44.10;23.83;;;;;;;8.34;100.00;99870.69;4938712;29;20027;-72
2021/12/07 15:34:44;;;;;;;47.10;24.63;;;;;;;8.24;100.00;99884.84;4938462;29;20098;-73
2021/12/07 15:37:30;;;;;;;57.13;27.90;;;;;;;8.00;100.00;99885.31;4938527;29;20031;-72
2021/12/07 15:40:15;;;;;;;48.10;26.50;;;;;;;8.42;100.00;99879.22;4937310;29;20035;-73
2021/12/07 15:43:01;;;;;;;54.83;27.75;;;;;;;8.03;100.00;99882.63;4938160;29;20123;-73
2021/12/07 15:45:47;;;;;;;44.38;24.38;;;;;;;7.91;100.00;99888.09;4923565;29;20345;-73
2021/12/07 15:48:35;;;;;;;47.38;24.63;;;;;;;8.23;100.00;99893.53;4925129;29;20039;-72
2021/12/07 15:51:21;;;;;;;52.55;27.30;;;;;;;8.30;100.00;99882.09;4938508;29;20036;-74
2021/12/07 15:54:06;;;;;;;40.92;22.92;;;;;;;8.19;100.00;99886.63;4938941;29;20173;-73
2021/12/07 15:57:11;;;;;;;32.13;19.70;;;;;;;8.28;100.00;99889.09;4937073;29;20028;-73
2021/12/07 16:00:01;;;;;;;29.63;18.55;;;;;;;8.30;100.00;99888.19;4937698;29;20108;-75
2021/12/07 16:03:03;;;;;;;32.80;20.13;;;;;;;8.25;100.00;99899.59;4938929;29;20477;-74
2021/12/07 16:05:55;;;;;;;29.70;17.92;;;;;;;7.68;100.00;99896.34;4923237;29;20028;-72
2021/12/07 16:08:40;;;;;;;30.48;18.25;;;;;;;7.29;100.00;99886.69;4937539;29;20034;-74
2021/12/07 16:11:26;;;;;;;36.28;20.50;;;;;;;7.77;100.00;99877.09;4937468;29;20365;-73
2021/12/07 16:14:26;;;;;;;35.58;19.83;;;;;;;7.91;100.00;99883.75;4939250;29;20098;-72
2021/12/07 16:17:19;;;;;;;34.63;19.80;;;;;;;8.15;100.00;99896.28;4937714;29;20039;-72
2021/12/07 16:20:07;;;;;;;33.80;19.45;;;;;;;8.01;100.00;99898.34;4937666;29;20038;-72
2021/12/07 16:22:53;;;;;;;29.40;18.10;;;;;;;8.08;100.00;99902.50;4937423;29;20067;-73
2021/12/07 16:25:39;;;;;;;32.95;19.33;;;;;;;7.77;100.00;99903.16;4939523;29;20099;-70
2021/12/07 16:28:25;;;;;;;29.17;16.98;;;;;;;7.83;100.00;99918.66;4937626;29;20027;-71
2021/12/07 16:31:13;;;;;;;26.13;16.88;;;;;;;7.93;100.00;99918.50;4937497;29;20031;-71
2021/12/07 16:33:59;;;;;;;29.35;16.58;;;;;;;7.94;100.00;99914.13;4922651;29;20031;-71
2021/12/07 16:36:46;;;;;;;22.27;13.02;;;;;;;7.93;100.00;99902.84;4922798;29;20032;-72
2021/12/07 16:39:31;;;;;;;19.80;13.05;;;;;;;7.82;100.00;99896.97;4938249;29;20031;-72
2021/12/07 16:42:19;;;;;;;21.60;14.07;;;;;;;7.66;100.00;99884.25;4922486;29;20034;-72
2021/12/07 16:45:07;;;;;;;19.35;12.60;;;;;;;7.65;100.00;99874.72;4936550;29;20123;-72
2021/12/07 16:47:54;;;;;;;20.40;13.10;;;;;;;7.69;100.00;99897.22;4923892;29;20040;-73
2021/12/07 16:50:41;;;;;;;21.05;13.65;;;;;;;7.50;100.00;99898.44;4923154;29;20038;-71
2021/12/07 16:53:27;;;;;;;24.05;13.90;;;;;;;7.54;100.00;99910.53;4937406;29;20039;-72
2021/12/07 16:56:13;;;;;;;18.63;13.23;;;;;;;7.48;100.00;99916.72;4936602;29;20027;-73
2021/12/07 16:59:00;;;;;;;19.20;12.98;;;;;;;7.48;100.00;99926.28;4937621;29;20502;-73
2021/12/07 17:01:45;;;;;;;18.67;13.43;;;;;;;7.72;100.00;99923.25;4936979;29;20039;-72
2021/12/07 17:04:31;;;;;;;19.02;14.18;;;;;;;7.73;100.00;99925.84;4936561;29;20035;-73
2021/12/07 17:07:17;;;;;;;17.05;12.40;;;;;;;7.49;100.00;99926.28;4937287;29;20063;-72
2021/12/07 17:10:05;;;;;;;19.75;13.60;;;;;;;8.00;100.00;99925.28;4937700;29;20027;-73
2021/12/07 17:12:51;;;;;;;23.15;15.60;;;;;;;7.71;100.00;99929.31;4935597;29;20090;-72
2021/12/07 17:15:37;;;;;;;21.67;15.45;;;;;;;7.40;100.00;99925.56;4937070;29;20023;-72
2021/12/07 17:18:25;;;;;;;22.27;15.45;;;;;;;7.89;100.00;99931.59;4937581;29;20119;-74
2021/12/07 17:21:11;;;;;;;21.75;15.60;;;;;;;7.92;100.00;99932.41;4940387;29;20063;-72
2021/12/07 17:23:57;;;;;;;26.27;16.85;;;;;;;7.74;100.00;99924.06;4937107;29;20102;-73
2021/12/07 17:26:44;;;;;;;23.23;16.00;;;;;;;7.42;100.00;99929.88;4936351;29;20061;-73
2021/12/07 17:29:29;;;;;;;20.90;14.57;;;;;;;7.21;100.00;99927.63;4936980;29;20059;-73
2021/12/07 17:32:15;;;;;;;20.27;14.77;;;;;;;7.13;100.00;99939.91;4936372;29;20043;-73
2021/12/07 17:35:03;;;;;;;24.42;15.90;;;;;;;7.38;100.00;99943.84;4921856;29;20035;-73
2021/12/07 17:37:49;;;;;;;21.70;15.60;;;;;;;7.78;100.00;99928.34;4936685;29;20107;-73
2021/12/07 17:40:35;;;;;;;21.88;14.98;;;;;;;7.75;100.00;99911.00;4937388;29;20024;-74
2021/12/07 17:43:23;;;;;;;23.55;16.65;;;;;;;8.00;100.00;99914.84;4936691;29;20111;-72
2021/12/07 17:46:09;;;;;;;25.23;16.85;;;;;;;7.50;100.00;99922.78;4936111;29;20051;-73
2021/12/07 17:48:55;;;;;;;24.67;16.27;;;;;;;7.85;100.00;99927.34;4936576;29;20039;-72
2021/12/07 17:51:43;;;;;;;23.63;16.23;;;;;;;7.79;100.00;99930.91;4936196;29;20421;-72
2021/12/07 17:54:30;;;;;;;27.77;18.05;;;;;;;7.37;100.00;99931.69;4937286;29;20024;-73
2021/12/07 17:57:16;;;;;;;23.48;16.23;;;;;;;7.93;100.00;99920.22;4936507;29;20388;-73
2021/12/07 18:00:07;;;;;;;24.38;16.80;;;;;;;7.56;100.00;99911.38;4936128;29;20062;-72
2021/12/07 18:02:54;;;;;;;25.63;17.50;;;;;;;7.49;100.00;99904.56;4938308;28;20460;-73
2021/12/07 18:05:40;;;;;;;27.50;18.25;;;;;;;7.65;100.00;99904.25;4941164;29;20210;-72
2021/12/07 18:08:26;;;;;;;25.02;16.58;;;;;;;7.58;100.00;99907.00;4939695;29;20460;-72
2021/12/07 18:11:13;;;;;;;21.27;15.85;;;;;;;7.21;100.00;99912.00;4939789;29;20043;-73
2021/12/07 18:13:59;;;;;;;20.67;16.15;;;;;;;7.47;100.00;99927.19;4926648;29;20412;-73
2021/12/07 18:16:46;;;;;;;22.13;15.57;;;;;;;7.55;100.00;99933.13;4939487;29;20024;-73
2021/12/07 18:19:32;;;;;;;20.77;15.38;;;;;;;7.76;100.00;99940.56;4926970;29;20479;-73
2021/12/07 18:22:18;;;;;;;21.13;14.82;;;;;;;7.74;100.00;99942.31;4940388;29;20144;-72
2021/12/07 18:25:06;;;;;;;23.73;15.73;;;;;;;7.69;100.00;99946.75;4940673;29;20055;-72
2021/12/07 18:27:52;;;;;;;22.67;15.27;;;;;;;7.84;100.00;99955.16;4940016;29;20122;-72